Time;durP1;ratioP1;P1;durP2;ratioP2;P2;SDS_P1;SDS_P2;PMS_P1;PMS_P2;Temp;Humidity;BMP_temperature;BMP_pressure;BME280_temperature;BME280_humidity;BME280_pressure;Samples;Min_cycle;Max_cycle;Signal;HPM_P1;HPM_P2
2021/04/02 00:01:06;;;;;;;3.95;2.60;;;;;;;8.92;61.48;100080.70;1743541;81;26673;-72
2021/04/02 00:03:36;;;;;;;4.12;2.30;;;;;;;8.84;61.86;100076.66;1746192;80;21629;-71
2021/04/02 00:06:03;;;;;;;3.52;2.40;;;;;;;8.80;61.92;100072.66;1755410;81;21258;-70
2021/04/02 00:08:29;;;;;;;4.50;2.40;;;;;;;8.89;61.78;100076.22;1748524;80;21137;-72
2021/04/02 00:11:05;;;;;;;2.80;2.05;;;;;;;8.86;61.61;100077.83;1749649;80;22092;-71
2021/04/02 00:13:37;;;;;;;3.42;2.40;;;;;;;8.77;61.72;100076.39;1729680;81;21299;-72
2021/04/02 00:16:08;;;;;;;4.83;2.52;;;;;;;8.76;61.73;100081.34;1728578;80;21186;-72
2021/04/02 00:18:32;;;;;;;3.62;2.35;;;;;;;8.78;61.80;100093.05;1721486;81;21238;-72
2021/04/02 00:20:59;;;;;;;5.53;2.40;;;;;;;8.85;61.69;100089.33;1744801;81;25793;-72
2021/04/02 00:23:25;;;;;;;3.58;2.40;;;;;;;8.80;61.83;100093.22;1741542;80;21206;-72
2021/04/02 00:25:51;;;;;;;3.30;2.60;;;;;;;8.76;61.86;100094.97;1759310;79;26709;-72
2021/04/02 00:28:17;;;;;;;3.15;2.30;;;;;;;8.92;61.21;100097.00;1751040;79;21188;-72
2021/04/02 00:30:50;;;;;;;2.87;2.27;;;;;;;9.02;60.94;100094.30;1749759;79;27051;-71
2021/04/02 00:33:18;;;;;;;3.65;2.30;;;;;;;8.98;60.80;100091.95;1750639;79;21223;-72
2021/04/02 00:35:44;;;;;;;3.92;2.35;;;;;;;9.00;60.86;100090.99;1746603;80;21518;-72
2021/04/02 00:38:10;;;;;;;3.15;2.40;;;;;;;8.86;61.32;100085.23;1742715;79;26784;-70
2021/04/02 00:40:40;;;;;;;3.33;2.25;;;;;;;8.95;61.11;100089.62;1741817;80;22145;-71
2021/04/02 00:43:05;;;;;;;5.55;2.50;;;;;;;8.95;60.80;100092.25;1745068;80;21216;-71
2021/04/02 00:45:31;;;;;;;4.67;1.92;;;;;;;8.90;61.19;100097.14;1753612;79;25359;-71
2021/04/02 00:47:57;;;;;;;3.70;2.00;;;;;;;8.92;60.09;100100.45;1744056;80;28929;-71
2021/04/02 00:50:41;;;;;;;3.92;2.30;;;;;;;8.78;60.28;100111.47;1746843;79;21212;-69
2021/04/02 00:53:07;;;;;;;2.30;1.85;;;;;;;8.66;60.54;100108.69;1750372;79;21707;-71
2021/04/02 00:55:34;;;;;;;3.08;1.98;;;;;;;8.54;60.53;100107.52;1742940;79;21582;-72
2021/04/02 00:57:59;;;;;;;3.52;2.00;;;;;;;8.56;60.57;100095.07;1741449;80;21179;-70
2021/04/02 01:00:26;;;;;;;3.47;2.33;;;;;;;8.57;60.79;100104.61;1747036;80;28331;-71
2021/04/02 01:02:54;;;;;;;2.87;2.08;;;;;;;8.54;61.18;100100.12;1745853;81;21227;-70
2021/04/02 01:05:22;;;;;;;4.25;2.20;;;;;;;8.58;60.79;100105.45;1752025;81;21863;-71
2021/04/02 01:08:11;;;;;;;3.87;2.30;;;;;;;8.46;61.03;100107.42;1744396;81;21555;-69
2021/04/02 01:10:37;;;;;;;3.77;2.20;;;;;;;8.38;61.64;100113.37;1765617;79;21209;-70
2021/04/02 01:13:11;;;;;;;3.95;2.50;;;;;;;8.41;61.61;100110.95;1749916;80;28311;-70
2021/04/02 01:16:03;;;;;;;4.12;2.70;;;;;;;8.46;61.71;100112.69;1785463;77;21173;-69
2021/04/02 01:19:05;;;;;;;3.27;2.47;;;;;;;8.26;62.17;100117.14;1793659;77;21618;-69
2021/04/02 01:21:38;;;;;;;3.77;2.30;;;;;;;8.40;61.96;100111.91;1797470;77;21136;-70
2021/04/02 01:24:34;;;;;;;3.55;2.40;;;;;;;8.34;61.99;100107.22;1790300;77;21222;-70
2021/04/02 01:27:33;;;;;;;4.00;2.65;;;;;;;8.20;62.21;100117.23;1799844;77;21590;-69
2021/04/02 01:30:02;;;;;;;3.37;2.20;;;;;;;8.25;62.02;100121.58;1786384;77;21182;-70
2021/04/02 01:32:35;;;;;;;3.65;2.40;;;;;;;8.09;62.29;100112.11;1760730;77;40853;-69
2021/04/02 01:35:12;;;;;;;3.17;2.30;;;;;;;8.19;62.42;100123.95;1808310;77;21183;-69
2021/04/02 01:37:48;;;;;;;2.98;2.17;;;;;;;8.10;62.17;100124.30;1796234;77;21136;-69
2021/04/02 01:40:15;;;;;;;4.87;2.45;;;;;;;8.00;62.32;100130.05;1801310;77;21600;-69
2021/04/02 01:42:42;;;;;;;3.62;2.37;;;;;;;7.90;62.59;100135.32;1793513;77;21167;-69
2021/04/02 01:45:11;;;;;;;3.60;2.50;;;;;;;7.90;62.53;100141.41;1801448;77;21227;-69
2021/04/02 01:47:37;;;;;;;5.15;2.47;;;;;;;7.87;62.48;100143.48;1809360;77;21153;-70
2021/04/02 01:50:04;;;;;;;3.02;2.00;;;;;;;7.98;62.23;100143.83;1793833;77;25296;-70
2021/04/02 01:52:30;;;;;;;3.70;2.30;;;;;;;7.88;62.69;100157.81;1805723;77;22666;-70
2021/04/02 01:54:56;;;;;;;5.00;1.95;;;;;;;7.96;62.94;100165.50;1790329;77;26665;-70
2021/04/02 01:57:22;;;;;;;5.40;2.20;;;;;;;7.87;62.80;100161.40;1800407;77;21877;-70
2021/04/02 01:59:48;;;;;;;5.95;2.00;;;;;;;7.96;62.77;100166.81;1760680;77;27029;-70
2021/04/02 02:02:14;;;;;;;3.58;1.80;;;;;;;7.89;62.64;100166.52;1791200;77;25431;-70
2021/04/02 02:04:40;;;;;;;2.98;1.70;;;;;;;7.93;62.49;100163.15;1755636;79;21650;-70
2021/04/02 02:07:06;;;;;;;4.65;2.15;;;;;;;7.81;62.71;100162.44;1757969;77;26726;-70
2021/04/02 02:09:39;;;;;;;3.77;2.02;;;;;;;7.77;62.49;100165.84;1796319;77;22830;-70
2021/04/02 02:12:08;;;;;;;3.52;1.92;;;;;;;7.65;62.82;100168.25;1803947;77;21219;-69
2021/04/02 02:14:35;;;;;;;4.08;1.90;;;;;;;7.38;63.47;100174.98;1792657;77;21232;-69
2021/04/02 02:17:04;;;;;;;4.65;2.22;;;;;;;7.27;64.15;100180.33;1792178;77;21119;-70
2021/04/02 02:19:31;;;;;;;4.12;2.00;;;;;;;7.22;64.09;100186.47;1792840;77;21183;-70
2021/04/02 02:21:58;;;;;;;5.22;2.37;;;;;;;7.10;64.47;100182.64;1798267;77;21187;-70
2021/04/02 02:24:25;;;;;;;3.95;1.90;;;;;;;6.96;65.04;100194.80;1761643;79;21743;-69
2021/04/02 02:26:51;;;;;;;6.97;2.10;;;;;;;7.07;64.90;100190.79;1739964;79;21169;-70
2021/04/02 02:29:16;;;;;;;4.40;2.30;;;;;;;7.16;64.85;100195.25;1788748;77;28322;-70
2021/04/02 02:31:42;;;;;;;4.00;2.10;;;;;;;7.09;65.44;100200.67;1796812;77;26717;-70
2021/04/02 02:34:09;;;;;;;3.25;2.00;;;;;;;6.89;65.96;100200.24;1762124;79;21977;-70
2021/04/02 02:36:35;;;;;;;4.55;1.90;;;;;;;6.99;65.94;100205.03;1758725;80;21667;-70
2021/04/02 02:39:04;;;;;;;3.22;1.90;;;;;;;7.04;65.81;100198.93;1794896;77;21187;-70
2021/04/02 02:41:30;;;;;;;5.53;2.20;;;;;;;6.69;67.03;100215.88;1793754;77;21094;-70
2021/04/02 02:43:57;;;;;;;8.48;2.50;;;;;;;6.55;67.54;100210.97;1794080;77;26616;-70
2021/04/02 02:46:27;;;;;;;4.75;2.60;;;;;;;6.59;67.62;100218.94;1766889;79;21606;-70
2021/04/02 02:49:00;;;;;;;3.87;2.15;;;;;;;6.59;67.99;100212.38;1762993;80;21228;-70
2021/04/02 02:51:31;;;;;;;5.80;2.47;;;;;;;6.40;68.61;100219.16;1791264;77;21214;-69
2021/04/02 02:54:03;;;;;;;2.98;1.95;;;;;;;6.40;68.90;100224.41;1793405;77;21160;-69
2021/04/02 02:56:29;;;;;;;3.95;1.92;;;;;;;6.61;68.35;100218.33;1797392;77;21170;-69
2021/04/02 02:58:55;;;;;;;4.15;2.08;;;;;;;6.52;68.83;100229.59;1793973;77;21365;-69
2021/04/02 03:01:23;;;;;;;5.03;2.20;;;;;;;6.47;68.85;100230.79;1759318;77;21548;-70
2021/04/02 03:03:48;;;;;;;;;;;;;;;6.54;68.84;100223.72;1794571;77;21204;-69
2021/04/02 03:06:14;;;;;;;3.52;2.35;;;;;;;6.29;69.79;100234.94;1791655;77;28849;-69
2021/04/02 03:08:47;;;;;;;5.45;2.12;;;;;;;6.42;69.44;100234.77;1799739;77;27042;-69
2021/04/02 03:11:13;;;;;;;3.90;2.27;;;;;;;6.44;69.20;100232.36;1789003;77;21678;-69
2021/04/02 03:13:40;;;;;;;3.27;2.15;;;;;;;6.25;70.06;100224.36;1795447;77;27152;-70
2021/04/02 03:16:06;;;;;;;3.50;2.20;;;;;;;6.42;69.81;100217.23;1776491;79;21658;-70
2021/04/02 03:18:31;;;;;;;4.05;2.15;;;;;;;6.51;69.44;100221.35;1734872;80;21635;-70
2021/04/02 03:20:57;;;;;;;3.75;2.47;;;;;;;6.60;69.46;100219.27;1750610;80;26861;-70
2021/04/02 03:23:23;;;;;;;4.45;2.37;;;;;;;6.58;69.32;100218.58;1765538;79;23251;-70
2021/04/02 03:25:49;;;;;;;5.00;2.50;;;;;;;6.66;69.30;100216.13;1759441;79;25397;-70
2021/04/02 03:28:17;;;;;;;5.63;2.80;;;;;;;6.83;68.66;100225.21;1765768;79;23698;-70
2021/04/02 03:30:42;;;;;;;;;;;;;;;6.83;68.41;100219.96;1767207;79;22400;-70
2021/04/02 03:33:28;;;;;;;5.95;2.72;;;;;;;6.77;68.43;100223.10;1763121;79;20203;-70
2021/04/02 03:35:55;;;;;;;5.37;2.72;;;;;;;6.73;68.54;100221.23;1769932;79;21223;-71
2021/04/02 03:38:22;;;;;;;4.78;2.80;;;;;;;6.70;68.64;100220.17;1744154;79;21546;-70
2021/04/02 03:40:49;;;;;;;5.55;2.60;;;;;;;6.56;69.09;100221.33;1764864;79;21478;-70
2021/04/02 03:43:15;;;;;;;6.03;2.58;;;;;;;6.40;69.77;100215.23;1770712;79;21188;-70
2021/04/02 03:45:41;;;;;;;5.83;2.60;;;;;;;6.55;69.29;100207.85;1766798;78;26774;-71
2021/04/02 03:48:09;;;;;;;5.87;2.65;;;;;;;6.56;69.29;100203.45;1731472;79;21219;-71
2021/04/02 03:50:37;;;;;;;4.62;2.65;;;;;;;6.47;69.62;100201.94;1763945;79;21218;-71
2021/04/02 03:53:07;;;;;;;4.65;2.90;;;;;;;6.27;70.26;100202.77;1772322;78;21213;-71
2021/04/02 03:55:34;;;;;;;3.75;2.77;;;;;;;6.25;70.55;100203.39;1798929;78;21156;-70
2021/04/02 03:58:01;;;;;;;5.92;2.60;;;;;;;6.32;70.27;100201.90;1761890;78;21544;-71
2021/04/02 04:00:37;;;;;;;4.75;2.90;;;;;;;6.32;70.38;100202.39;1798498;78;22281;-70
2021/04/02 04:03:03;;;;;;;8.10;3.47;;;;;;;6.30;70.36;100202.52;1787143;78;21264;-69
2021/04/02 04:05:29;;;;;;;5.17;2.90;;;;;;;6.19;70.61;100198.64;1793445;78;25816;-70
2021/04/02 04:07:55;;;;;;;4.42;2.72;;;;;;;6.28;70.46;100195.27;1788651;78;28420;-70
2021/04/02 04:10:20;;;;;;;4.30;2.60;;;;;;;6.40;70.11;100192.94;1800044;78;26772;-70
2021/04/02 04:12:49;;;;;;;6.93;2.83;;;;;;;6.46;69.74;100193.73;1795850;78;21348;-70
2021/04/02 04:15:15;;;;;;;6.40;2.90;;;;;;;6.46;69.62;100195.50;1795989;78;21153;-71
2021/04/02 04:17:43;;;;;;;4.33;2.75;;;;;;;6.37;69.87;100184.47;1789880;78;21216;-70
2021/04/02 04:20:11;;;;;;;4.50;2.60;;;;;;;6.44;69.55;100191.70;1796423;78;21182;-70
2021/04/02 04:22:38;;;;;;;5.60;2.87;;;;;;;6.38;69.70;100188.27;1819253;77;21219;-71
2021/04/02 04:25:05;;;;;;;6.25;2.87;;;;;;;6.22;70.41;100190.53;1814760;77;21606;-70
2021/04/02 04:27:31;;;;;;;6.22;3.35;;;;;;;6.31;70.17;100190.22;1805223;77;21211;-71
2021/04/02 04:29:57;;;;;;;6.10;3.30;;;;;;;6.17;70.54;100196.61;1821894;77;21873;-71
2021/04/02 04:32:23;;;;;;;7.08;3.08;;;;;;;6.21;70.65;100194.92;1809729;77;28352;-71
2021/04/02 04:34:49;;;;;;;8.48;2.80;;;;;;;6.22;70.54;100187.41;1819317;77;25684;-70
2021/04/02 04:37:18;;;;;;;4.72;3.00;;;;;;;6.23;70.57;100190.86;1816821;77;21203;-72
2021/04/02 04:39:47;;;;;;;7.22;3.27;;;;;;;6.21;71.01;100184.92;1780082;77;21255;-71
2021/04/02 04:42:12;;;;;;;6.95;3.50;;;;;;;6.46;70.19;100187.17;1815146;77;21109;-70
2021/04/02 04:44:39;;;;;;;5.40;3.20;;;;;;;6.58;69.77;100189.72;1822393;77;28359;-71
2021/04/02 04:47:05;;;;;;;5.27;3.37;;;;;;;6.63;69.52;100194.09;1766762;77;21634;-70
2021/04/02 04:49:31;;;;;;;5.95;3.35;;;;;;;6.56;69.58;100189.84;1802597;77;22827;-70
2021/04/02 04:51:57;;;;;;;5.60;3.40;;;;;;;6.56;69.44;100187.72;1821851;77;26196;-70
2021/04/02 04:54:24;;;;;;;7.30;3.90;;;;;;;6.54;69.55;100188.30;1807989;77;22775;-70
2021/04/02 04:56:51;;;;;;;5.83;4.10;;;;;;;6.65;69.10;100183.83;1807589;77;21619;-70
2021/04/02 04:59:17;;;;;;;7.85;4.00;;;;;;;6.50;69.50;100180.36;1810263;77;21191;-69
2021/04/02 05:01:45;;;;;;;7.83;4.20;;;;;;;6.50;69.63;100185.61;1772675;77;21190;-70
2021/04/02 05:04:11;;;;;;;5.95;3.58;;;;;;;6.33;69.80;100187.84;1800005;77;21591;-70
2021/04/02 05:06:36;;;;;;;6.53;3.50;;;;;;;6.39;69.48;100188.64;1787050;77;24621;-70
2021/04/02 05:09:03;;;;;;;6.05;3.58;;;;;;;6.25;69.94;100186.34;1819219;77;28347;-70
2021/04/02 05:11:30;;;;;;;5.55;3.22;;;;;;;6.26;70.08;100195.84;1821617;77;21172;-69
2021/04/02 05:13:56;;;;;;;8.00;3.60;;;;;;;6.40;69.63;100194.24;1815373;77;21768;-70
2021/04/02 05:16:22;;;;;;;7.77;3.80;;;;;;;6.38;69.82;100201.88;1818033;77;27860;-69
2021/04/02 05:18:48;;;;;;;7.75;3.62;;;;;;;6.40;69.80;100194.70;1806002;77;21457;-69
2021/04/02 05:21:14;;;;;;;6.45;3.42;;;;;;;6.38;70.01;100192.20;1787700;77;21184;-70
2021/04/02 05:23:40;;;;;;;8.18;3.50;;;;;;;6.55;69.55;100197.84;1814219;77;27214;-69
2021/04/02 05:26:11;;;;;;;10.58;3.70;;;;;;;6.44;69.96;100208.75;1811605;77;22118;-69
2021/04/02 05:28:37;;;;;;;6.08;3.55;;;;;;;6.46;70.06;100208.16;1820316;77;21491;-71
2021/04/02 05:31:04;;;;;;;7.90;3.90;;;;;;;6.60;69.79;100214.03;1812649;77;23267;-71
2021/04/02 05:33:29;;;;;;;6.55;4.22;;;;;;;6.78;69.25;100219.04;1829196;77;21165;-70
2021/04/02 05:35:55;;;;;;;6.28;3.70;;;;;;;6.84;68.95;100225.57;1805364;77;25550;-70
2021/04/02 05:38:21;;;;;;;7.87;3.60;;;;;;;6.71;69.40;100222.31;1805349;77;21165;-70
2021/04/02 05:40:47;;;;;;;6.93;3.73;;;;;;;6.68;69.42;100226.05;1790289;77;26562;-70
2021/04/02 05:43:37;;;;;;;9.27;3.97;;;;;;;6.83;68.93;100227.84;1815467;77;23718;-69
2021/04/02 05:46:03;;;;;;;9.83;4.00;;;;;;;7.00;68.36;100225.09;1802978;77;22548;-70
2021/04/02 05:48:31;;;;;;;6.00;3.80;;;;;;;6.74;69.02;100229.46;1809204;77;26800;-70
2021/04/02 05:50:57;;;;;;;6.28;3.95;;;;;;;6.93;68.43;100231.36;1808024;77;21196;-71
2021/04/02 05:53:23;;;;;;;6.92;4.03;;;;;;;6.88;68.69;100232.20;1810602;77;26269;-69
2021/04/02 05:55:48;;;;;;;9.60;5.20;;;;;;;7.00;68.58;100235.59;1777177;77;22795;-69
2021/04/02 05:58:14;;;;;;;14.25;8.20;;;;;;;6.99;68.42;100238.70;1737007;79;28472;-69
2021/04/02 06:00:40;;;;;;;16.90;9.63;;;;;;;7.14;67.90;100241.80;1734108;80;26671;-70
2021/04/02 06:03:07;;;;;;;13.20;9.83;;;;;;;7.10;67.88;100237.80;1727135;80;22454;-70
2021/04/02 06:05:33;;;;;;;25.10;14.95;;;;;;;7.22;67.88;100233.27;1739336;80;21185;-69
2021/04/02 06:07:59;;;;;;;23.15;16.55;;;;;;;7.50;67.03;100236.12;1748627;80;21192;-71
2021/04/02 06:10:26;;;;;;;32.40;21.80;;;;;;;7.61;66.79;100236.49;1802557;77;21251;-70
2021/04/02 06:12:51;;;;;;;26.25;19.00;;;;;;;7.63;66.48;100241.13;1809147;77;21172;-70
2021/04/02 06:15:18;;;;;;;25.60;19.45;;;;;;;7.59;66.39;100231.87;1805322;77;22367;-70
2021/04/02 06:18:11;;;;;;;25.48;18.92;;;;;;;7.59;66.50;100231.87;1787699;77;21161;-69
2021/04/02 06:20:43;;;;;;;31.10;20.95;;;;;;;7.59;66.68;100235.31;1791280;77;21167;-70
2021/04/02 06:23:28;;;;;;;25.08;20.32;;;;;;;7.65;66.15;100233.95;1796987;77;21180;-72
2021/04/02 06:26:01;;;;;;;29.37;21.42;;;;;;;7.73;65.62;100237.55;1787936;77;21118;-71
2021/04/02 06:28:30;;;;;;;29.37;21.50;;;;;;;7.59;65.71;100242.38;1784487;77;21230;-70
2021/04/02 06:31:06;;;;;;;26.23;20.60;;;;;;;7.33;66.34;100241.06;1795271;77;21225;-70
2021/04/02 06:33:41;;;;;;;29.50;20.88;;;;;;;7.24;66.41;100231.36;1803905;77;21183;-68
2021/04/02 06:36:24;;;;;;;22.60;17.25;;;;;;;7.21;66.51;100236.87;1793588;77;21198;-69
2021/04/02 06:39:05;;;;;;;21.65;15.95;;;;;;;7.39;66.22;100231.80;1781998;77;21223;-72
2021/04/02 06:41:33;;;;;;;20.68;14.87;;;;;;;7.27;66.54;100244.22;1799792;77;21668;-71
2021/04/02 06:44:01;;;;;;;20.37;12.50;;;;;;;7.15;67.22;100235.59;1788454;77;21125;-72
2021/04/02 06:46:29;;;;;;;;;;;;;;;7.08;67.17;100234.45;1795871;77;21171;-73
2021/04/02 06:48:58;;;;;;;23.50;15.98;;;;;;;7.06;67.36;100233.75;1785323;77;20301;-73
2021/04/02 06:51:24;;;;;;;22.65;16.02;;;;;;;6.92;67.61;100247.23;1794190;77;21198;-74
2021/04/02 06:53:53;;;;;;;21.23;14.80;;;;;;;6.90;67.72;100254.39;1799231;77;21855;-75
2021/04/02 06:56:20;;;;;;;20.55;17.15;;;;;;;7.11;67.03;100252.56;1786653;79;21242;-74
2021/04/02 06:58:46;;;;;;;22.27;17.30;;;;;;;6.87;67.37;100254.64;1788238;79;21170;-76
2021/04/02 07:01:14;;;;;;;23.60;16.35;;;;;;;6.80;67.32;100256.47;1782176;79;29038;-75
2021/04/02 07:03:42;;;;;;;29.82;21.68;;;;;;;6.75;67.75;100256.53;1779499;78;21210;-73
2021/04/02 07:06:08;;;;;;;22.73;16.62;;;;;;;6.91;67.35;100258.69;1776237;78;21836;-72
2021/04/02 07:08:36;;;;;;;19.90;14.23;;;;;;;6.86;67.18;100259.56;1778809;79;25503;-73
2021/04/02 07:11:02;;;;;;;20.12;14.07;;;;;;;6.77;67.59;100263.78;1772124;79;21170;-73
2021/04/02 07:13:35;;;;;;;16.82;12.78;;;;;;;6.97;67.32;100255.05;1778821;79;28271;-74
2021/04/02 07:16:03;;;;;;;16.87;12.60;;;;;;;7.19;66.84;100250.13;1776332;79;21185;-72
2021/04/02 07:18:29;;;;;;;18.98;11.68;;;;;;;7.38;66.53;100256.43;1780025;79;21330;-73
2021/04/02 07:20:55;;;;;;;12.60;9.20;;;;;;;7.27;66.41;100259.12;1778565;79;21183;-71
2021/04/02 07:23:21;;;;;;;14.63;9.73;;;;;;;7.44;66.09;100257.67;1782021;79;21141;-73
2021/04/02 07:25:47;;;;;;;11.83;8.40;;;;;;;7.63;65.50;100250.32;1748461;79;28256;-73
2021/04/02 07:28:13;;;;;;;12.98;7.47;;;;;;;7.73;64.83;100252.50;1781144;79;26820;-72
2021/04/02 07:30:38;;;;;;;17.42;9.63;;;;;;;7.65;64.78;100247.09;1777117;79;21930;-73
2021/04/02 07:33:07;;;;;;;20.20;9.48;;;;;;;7.42;65.70;100249.11;1787390;79;27332;-72
2021/04/02 07:35:33;;;;;;;14.50;9.53;;;;;;;7.37;65.96;100246.38;1786580;79;21511;-72
2021/04/02 07:38:00;;;;;;;17.52;9.70;;;;;;;6.97;66.98;100255.55;1726811;81;28378;-73
2021/04/02 07:40:31;;;;;;;19.23;10.23;;;;;;;7.12;66.80;100258.17;1729374;82;21191;-72
2021/04/02 07:43:00;;;;;;;13.28;9.48;;;;;;;7.09;66.83;100267.63;1780832;79;21239;-72
2021/04/02 07:45:34;;;;;;;15.50;8.93;;;;;;;7.09;66.96;100256.30;1779764;79;21148;-72
2021/04/02 07:48:17;;;;;;;14.03;7.97;;;;;;;7.17;66.55;100248.10;1774486;79;21512;-72
2021/04/02 07:50:51;;;;;;;14.90;8.30;;;;;;;7.22;66.37;100258.70;1774248;79;21216;-71
2021/04/02 07:53:25;;;;;;;16.57;8.30;;;;;;;7.04;66.46;100263.26;1781063;79;21219;-73
2021/04/02 07:56:12;;;;;;;13.53;8.20;;;;;;;7.16;66.52;100262.22;1791201;77;21379;-72
2021/04/02 07:58:46;;;;;;;13.80;7.15;;;;;;;7.32;65.64;100258.27;1790827;77;21262;-72
2021/04/02 08:01:15;;;;;;;13.93;6.60;;;;;;;7.30;65.52;100264.12;1723362;80;21155;-72
2021/04/02 08:03:42;;;;;;;9.05;6.25;;;;;;;7.16;65.56;100267.47;1790485;77;21181;-72
2021/04/02 08:06:10;;;;;;;11.70;7.28;;;;;;;7.19;65.44;100260.64;1805791;77;21242;-72
2021/04/02 08:08:47;;;;;;;10.65;6.50;;;;;;;7.36;65.74;100246.52;1795985;77;21716;-71
2021/04/02 08:11:38;;;;;;;11.05;6.60;;;;;;;7.39;65.46;100250.19;1788043;77;21199;-72
2021/04/02 08:14:08;;;;;;;10.40;7.15;;;;;;;7.28;65.75;100247.67;1793363;77;21143;-72
2021/04/02 08:16:54;;;;;;;12.43;7.53;;;;;;;7.32;65.99;100252.53;1789692;77;21351;-72
2021/04/02 08:19:36;;;;;;;13.10;7.90;;;;;;;7.34;66.19;100252.39;1791878;77;21201;-72
2021/04/02 08:22:10;;;;;;;13.80;7.30;;;;;;;7.40;65.73;100263.69;1763581;77;21692;-72
2021/04/02 08:24:40;;;;;;;11.57;6.30;;;;;;;7.38;65.88;100264.31;1799690;77;21249;-72
2021/04/02 08:27:06;;;;;;;8.95;6.85;;;;;;;7.42;64.92;100261.75;1791375;77;21574;-73
2021/04/02 08:29:32;;;;;;;10.98;6.47;;;;;;;7.47;65.49;100253.01;1800638;77;21557;-72
2021/04/02 08:32:00;;;;;;;10.32;6.92;;;;;;;7.57;65.12;100252.17;1802864;77;21535;-72
2021/04/02 08:34:28;;;;;;;9.23;5.92;;;;;;;7.68;64.51;100244.20;1789255;77;21609;-72
2021/04/02 08:36:56;;;;;;;9.58;5.92;;;;;;;7.44;64.01;100238.82;1792532;77;21222;-72
2021/04/02 08:39:25;;;;;;;10.15;5.75;;;;;;;7.32;64.21;100243.83;1781955;77;21144;-71
2021/04/02 08:42:09;;;;;;;9.13;5.47;;;;;;;7.61;63.68;100235.18;1759325;79;21177;-74
2021/04/02 08:44:44;;;;;;;10.13;5.47;;;;;;;7.75;62.96;100239.22;1753442;79;21261;-75
2021/04/02 08:47:13;;;;;;;10.23;5.17;;;;;;;8.02;62.34;100230.20;1753248;79;21298;-74
2021/04/02 08:49:52;;;;;;;10.63;4.90;;;;;;;8.08;62.04;100239.34;1761180;79;21638;-74
2021/04/02 08:52:16;;;;;;;7.78;5.05;;;;;;;8.05;62.19;100227.78;1743390;80;21203;-73
2021/04/02 08:54:43;;;;;;;8.23;4.67;;;;;;;7.98;62.21;100232.75;1760077;79;21226;-73
2021/04/02 08:57:10;;;;;;;10.38;4.55;;;;;;;8.13;61.87;100220.02;1767560;80;21186;-72
2021/04/02 08:59:39;;;;;;;6.33;4.10;;;;;;;8.02;60.79;100228.06;1747715;80;22568;-72
2021/04/02 09:02:05;;;;;;;6.15;3.45;;;;;;;7.97;60.97;100226.30;1719423;81;21228;-71
2021/04/02 09:04:31;;;;;;;6.05;3.67;;;;;;;8.23;60.76;100223.50;1772454;80;21190;-71
2021/04/02 09:06:56;;;;;;;6.62;4.05;;;;;;;8.16;59.80;100229.45;1717650;81;28936;-71
2021/04/02 09:09:23;;;;;;;8.05;3.92;;;;;;;8.17;60.61;100212.68;1719876;81;26970;-73
2021/04/02 09:11:52;;;;;;;5.23;3.63;;;;;;;8.38;60.01;100219.12;1713538;82;21336;-73
2021/04/02 09:14:18;;;;;;;7.12;3.60;;;;;;;8.26;58.68;100217.95;1766210;79;21224;-73
2021/04/02 09:16:46;;;;;;;6.12;3.35;;;;;;;8.56;58.75;100208.25;1763889;80;25298;-74
2021/04/02 09:19:13;;;;;;;4.22;2.90;;;;;;;8.61;58.67;100203.88;1768405;79;21219;-71
2021/04/02 09:21:39;;;;;;;6.65;3.20;;;;;;;8.72;57.85;100212.09;1759947;79;21210;-71
2021/04/02 09:24:05;;;;;;;5.08;3.00;;;;;;;8.62;57.42;100220.84;1765321;80;21192;-73
2021/04/02 09:26:38;;;;;;;5.20;3.10;;;;;;;8.63;57.46;100214.59;1773704;79;21020;-71
2021/04/02 09:29:04;;;;;;;6.10;3.22;;;;;;;8.62;57.31;100212.95;1768007;80;21201;-71
2021/04/02 09:31:33;;;;;;;7.70;3.50;;;;;;;8.41;57.82;100210.45;1764944;79;21235;-70
2021/04/02 09:34:01;;;;;;;7.28;3.05;;;;;;;8.47;57.93;100206.93;1763645;80;21196;-69
2021/04/02 09:36:31;;;;;;;5.30;3.10;;;;;;;8.51;57.10;100203.88;1748972;81;21665;-71
2021/04/02 09:39:20;;;;;;;4.47;2.80;;;;;;;8.31;56.40;100224.09;1717143;82;21227;-71
2021/04/02 09:41:52;;;;;;;4.65;2.83;;;;;;;8.21;56.62;100214.89;1771238;80;21215;-72
2021/04/02 09:44:24;;;;;;;5.90;2.77;;;;;;;8.30;55.91;100213.70;1763063;79;21214;-71
2021/04/02 09:46:50;;;;;;;7.08;3.30;;;;;;;8.43;55.29;100226.09;1760324;80;21197;-70
2021/04/02 09:49:19;;;;;;;6.75;2.80;;;;;;;8.58;55.48;100193.63;1766026;79;21215;-70
2021/04/02 09:51:52;;;;;;;4.12;2.60;;;;;;;8.83;54.53;100202.70;1770610;79;21242;-70
2021/04/02 09:54:18;;;;;;;4.10;2.52;;;;;;;8.75;53.78;100209.18;1764831;80;21616;-69
2021/04/02 09:56:45;;;;;;;5.10;2.85;;;;;;;8.72;53.36;100209.46;1786899;77;21201;-68
2021/04/02 09:59:11;;;;;;;8.73;2.60;;;;;;;8.76;53.05;100187.13;1765693;77;21552;-69
2021/04/02 10:01:38;;;;;;;4.25;2.50;;;;;;;8.75;52.73;100193.37;1787774;77;22340;-69
2021/04/02 10:04:05;;;;;;;3.60;2.12;;;;;;;8.84;52.95;100184.62;1695738;80;26212;-69
2021/04/02 10:06:31;;;;;;;4.70;2.37;;;;;;;9.12;52.25;100168.81;1725037;80;21681;-69
2021/04/02 10:08:59;;;;;;;4.50;2.17;;;;;;;9.45;50.59;100185.03;1792253;77;21198;-69
2021/04/02 10:11:25;;;;;;;;;;;;;;;9.41;50.27;100173.11;1787542;77;21207;-69
2021/04/02 10:13:51;;;;;;;4.60;2.10;;;;;;;9.43;51.03;100164.55;1797524;77;22223;-68
2021/04/02 10:16:17;;;;;;;2.47;1.67;;;;;;;9.26;49.18;100175.40;1757803;79;21248;-70
2021/04/02 10:18:46;;;;;;;3.95;1.85;;;;;;;9.30;48.90;100167.55;1752319;79;21283;-68
2021/04/02 10:21:11;;;;;;;7.05;2.05;;;;;;;9.32;48.37;100170.39;1751231;80;21146;-69
2021/04/02 10:23:37;;;;;;;2.80;1.72;;;;;;;9.49;48.38;100162.64;1752825;80;27568;-69
2021/04/02 10:26:06;;;;;;;3.40;1.70;;;;;;;9.37;47.51;100169.10;1750038;80;22389;-68
2021/04/02 10:28:41;;;;;;;5.12;1.75;;;;;;;9.42;47.70;100158.97;1711366;80;21235;-68
2021/04/02 10:31:07;;;;;;;3.27;1.87;;;;;;;9.32;47.89;100162.48;1749036;80;21697;-68
2021/04/02 10:33:33;;;;;;;5.65;2.05;;;;;;;9.29;47.90;100168.05;1769928;80;28296;-69
2021/04/02 10:35:59;;;;;;;3.77;1.65;;;;;;;9.35;47.77;100158.70;1753951;79;26788;-68
2021/04/02 10:38:25;;;;;;;2.83;1.60;;;;;;;9.56;47.50;100157.62;1758755;80;22560;-68
2021/04/02 10:40:51;;;;;;;3.17;1.50;;;;;;;9.83;47.52;100144.84;1764432;80;27026;-70
2021/04/02 10:43:17;;;;;;;3.05;1.50;;;;;;;9.82;44.67;100156.37;1746337;80;25365;-68
2021/04/02 10:45:43;;;;;;;2.20;1.40;;;;;;;9.94;43.13;100140.65;1751521;80;28487;-69
2021/04/02 10:48:09;;;;;;;4.83;1.52;;;;;;;9.92;43.15;100144.44;1758792;80;21236;-68
2021/04/02 10:50:36;;;;;;;2.93;1.30;;;;;;;9.85;43.97;100138.92;1751286;80;21458;-69
2021/04/02 10:53:02;;;;;;;4.12;1.95;;;;;;;9.78;44.38;100107.06;1752390;80;21195;-69
2021/04/02 10:55:28;;;;;;;3.40;1.55;;;;;;;9.77;44.57;100126.99;1759821;79;26026;-68
2021/04/02 10:57:53;;;;;;;3.67;1.75;;;;;;;9.97;44.51;100123.20;1739515;81;28314;-70
2021/04/02 11:00:23;;;;;;;2.85;1.55;;;;;;;10.09;43.77;100126.44;1728410;81;26807;-68
2021/04/02 11:02:49;;;;;;;2.90;1.40;;;;;;;10.34;43.09;100127.95;1749502;81;22349;-70
2021/04/02 11:05:16;;;;;;;4.53;1.60;;;;;;;10.22;42.05;100128.66;1758134;81;21199;-68
2021/04/02 11:07:41;;;;;;;5.30;1.52;;;;;;;10.02;42.00;100127.55;1733458;81;21198;-68
2021/04/02 11:10:10;;;;;;;3.75;1.60;;;;;;;10.08;42.25;100131.36;1735840;81;21530;-69
2021/04/02 11:12:36;;;;;;;3.25;1.50;;;;;;;10.12;41.91;100123.98;1739260;81;21229;-70
2021/04/02 11:15:02;;;;;;;2.75;1.70;;;;;;;10.20;41.62;100130.64;1743428;81;21927;-71
2021/04/02 11:17:28;;;;;;;5.67;1.90;;;;;;;10.22;41.51;100124.70;1728981;81;21257;-70
2021/04/02 11:19:55;;;;;;;2.92;1.65;;;;;;;10.01;40.56;100132.48;1733416;81;25354;-69
2021/04/02 11:22:21;;;;;;;3.90;1.80;;;;;;;10.06;40.88;100118.32;1741809;81;21220;-69
2021/04/02 11:24:48;;;;;;;2.70;1.77;;;;;;;10.18;41.68;100107.54;1738079;81;26731;-70
2021/04/02 11:27:13;;;;;;;3.60;1.60;;;;;;;10.35;39.21;100121.20;1736824;81;21225;-70
2021/04/02 11:29:39;;;;;;;3.95;1.70;;;;;;;10.44;40.54;100118.60;1740956;81;27019;-68
2021/04/02 11:32:10;;;;;;;2.22;1.52;;;;;;;10.38;39.83;100126.17;1744179;81;25720;-71
2021/04/02 11:34:36;;;;;;;4.08;1.70;;;;;;;10.27;39.24;100111.05;1751570;81;21201;-70
2021/04/02 11:37:04;;;;;;;2.52;1.25;;;;;;;10.69;38.70;100097.95;1750677;81;21161;-71
2021/04/02 11:39:30;;;;;;;2.92;1.40;;;;;;;10.80;38.23;100114.49;1747681;81;21207;-70